Thompson Airport

CYTH | YTH

Thompson , Manitoba , Canada

Sunday, January 19th, 2020 | 13:24

Weather

CYTH 191900Z 28010G17KT 15SM FEW210 M18/M21 A3048 RMK CI1 SLP356

Charts

No Charts Available

Gates

No Gates Available

Runways

2 Available

Events

No events for this airport


New event